Time;durP1;ratioP1;P1;durP2;ratioP2;P2;SDS_P1;SDS_P2;PMS_P1;PMS_P2;Temp;Humidity;BMP_temperature;BMP_pressure;BME280_temperature;BME280_humidity;BME280_pressure;Samples;Min_cycle;Max_cycle;Signal;HPM_P1;HPM_P2
2021/11/02 00:02:10;;;;;;;3.17;2.20;;;9.80;99.90;;;;;;5013855;28;20480;-44
2021/11/02 00:04:36;;;;;;;3.47;1.90;;;9.60;99.90;;;;;;5022396;28;20433;-45
2021/11/02 00:07:02;;;;;;;3.90;1.80;;;9.60;99.90;;;;;;5027421;28;20520;-45
2021/11/02 00:09:29;;;;;;;2.53;1.50;;;9.20;99.90;;;;;;5008448;28;20505;-52
2021/11/02 00:12:15;;;;;;;6.40;1.93;;;9.00;99.90;;;;;;5006151;28;20199;-46
2021/11/02 00:14:40;;;;;;;2.23;1.60;;;9.10;99.90;;;;;;5021585;28;20475;-45
2021/11/02 00:17:18;;;;;;;4.37;1.80;;;8.80;99.90;;;;;;5020202;28;20203;-48
2021/11/02 00:19:46;;;;;;;2.40;1.70;;;8.70;99.90;;;;;;5008154;28;20385;-46
2021/11/02 00:22:16;;;;;;;3.93;2.00;;;8.90;99.90;;;;;;5016258;28;20461;-49
2021/11/02 00:27:23;;;;;;;4.47;1.93;;;8.70;99.90;;;;;;5008049;28;20426;-47
2021/11/02 00:29:48;;;;;;;4.23;2.40;;;8.80;99.90;;;;;;5008449;28;20793;-49
2021/11/02 00:32:14;;;;;;;3.40;2.20;;;8.90;99.90;;;;;;5023372;28;20432;-44
2021/11/02 00:34:40;;;;;;;4.40;1.93;;;8.80;99.90;;;;;;5012900;28;20199;-47
2021/11/02 00:37:06;;;;;;;3.40;1.97;;;9.10;99.90;;;;;;5012005;28;20492;-45
2021/11/02 00:39:31;;;;;;;6.40;3.03;;;9.10;99.90;;;;;;5007806;28;20198;-46
2021/11/02 00:41:57;;;;;;;4.67;1.77;;;9.10;99.90;;;;;;5007677;28;20294;-47
2021/11/02 00:44:23;;;;;;;3.57;2.40;;;9.10;99.90;;;;;;5012565;28;20195;-45
2021/11/02 00:46:51;;;;;;;3.10;1.90;;;9.10;99.90;;;;;;5022437;28;20194;-45
2021/11/02 00:49:18;;;;;;;5.80;2.50;;;9.20;99.90;;;;;;5007247;28;20186;-47
2021/11/02 00:51:48;;;;;;;3.37;1.80;;;9.10;99.90;;;;;;5007566;28;20492;-45
2021/11/02 00:54:14;;;;;;;3.27;2.00;;;9.10;99.90;;;;;;5007752;28;20917;-46
2021/11/02 00:56:42;;;;;;;3.93;2.03;;;9.10;99.90;;;;;;5027253;28;20861;-46
2021/11/02 00:59:08;;;;;;;4.60;1.90;;;9.20;99.90;;;;;;5020964;28;20538;-45
2021/11/02 01:01:34;;;;;;;4.13;2.03;;;9.10;99.90;;;;;;5014884;28;20450;-47
2021/11/02 01:04:04;;;;;;;5.37;1.90;;;9.10;99.90;;;;;;5007597;28;20465;-45
2021/11/02 01:06:34;;;;;;;2.83;1.57;;;9.20;99.90;;;;;;5008185;28;20429;-45
2021/11/02 01:09:00;;;;;;;3.33;1.60;;;9.10;99.90;;;;;;5007487;28;20450;-45
2021/11/02 01:11:26;;;;;;;3.93;1.80;;;9.30;99.90;;;;;;5007233;28;20956;-46
2021/11/02 01:13:53;;;;;;;3.80;1.70;;;9.20;99.90;;;;;;5013645;28;20433;-47
2021/11/02 01:16:22;;;;;;;4.87;2.10;;;9.40;99.90;;;;;;5014536;28;20425;-45
2021/11/02 01:18:48;;;;;;;2.90;1.53;;;9.30;99.90;;;;;;5024326;28;20424;-45
2021/11/02 01:21:13;;;;;;;5.20;1.93;;;9.40;99.90;;;;;;5007552;28;20515;-48
2021/11/02 01:23:39;;;;;;;3.53;1.87;;;9.40;99.90;;;;;;5010262;28;20418;-45
2021/11/02 01:26:05;;;;;;;2.27;1.57;;;9.10;99.90;;;;;;5007193;28;20184;-46
2021/11/02 01:28:30;;;;;;;3.50;2.00;;;9.30;99.90;;;;;;5009985;28;20182;-45
2021/11/02 01:30:56;;;;;;;2.90;1.77;;;9.50;99.90;;;;;;5019970;28;20194;-44
2021/11/02 01:33:22;;;;;;;2.73;1.30;;;9.30;99.90;;;;;;5018500;28;20190;-45
2021/11/02 01:35:47;;;;;;;5.43;1.70;;;9.30;99.90;;;;;;5006860;28;20199;-44
2021/11/02 01:38:14;;;;;;;3.13;1.80;;;9.10;99.90;;;;;;5006865;28;20183;-45
2021/11/02 01:40:40;;;;;;;3.40;1.93;;;9.30;99.90;;;;;;5006546;28;20328;-45
2021/11/02 01:43:06;;;;;;;4.60;1.60;;;9.40;99.90;;;;;;5008044;28;20460;-45
2021/11/02 01:45:32;;;;;;;6.07;1.70;;;9.40;99.90;;;;;;5014222;28;20504;-46
2021/11/02 01:47:58;;;;;;;4.37;1.57;;;9.40;99.90;;;;;;5017387;28;20317;-47
2021/11/02 01:50:24;;;;;;;3.23;1.60;;;9.50;99.90;;;;;;5005048;28;20610;-46
2021/11/02 01:52:49;;;;;;;7.67;1.80;;;9.60;99.90;;;;;;5015549;28;20179;-45
2021/11/02 01:55:17;;;;;;;3.90;2.40;;;9.50;99.90;;;;;;5016138;28;20421;-45
2021/11/02 01:57:45;;;;;;;3.30;1.30;;;9.70;99.90;;;;;;5026114;28;20225;-45
2021/11/02 02:00:13;;;;;;;5.07;1.90;;;10.10;99.90;;;;;;5019474;28;20490;-46
2021/11/02 02:02:59;;;;;;;2.57;1.60;;;10.00;99.90;;;;;;5016691;28;20458;-45
2021/11/02 02:06:13;;;;;;;5.37;1.80;;;10.00;99.90;;;;;;5006436;28;20816;-46
2021/11/02 02:09:03;;;;;;;2.43;1.40;;;10.10;99.90;;;;;;5003496;28;20609;-48
2021/11/02 02:12:03;;;;;;;5.10;1.90;;;10.00;99.90;;;;;;5003112;28;21028;-45
2021/11/02 02:14:55;;;;;;;3.60;1.80;;;10.10;99.90;;;;;;5010354;28;20441;-52
2021/11/02 02:17:29;;;;;;;5.53;1.60;;;10.00;99.90;;;;;;5021321;28;20637;-44
2021/11/02 02:20:01;;;;;;;2.70;1.50;;;9.80;99.90;;;;;;5013829;28;20830;-46
2021/11/02 02:23:04;;;;;;;4.13;1.80;;;10.00;99.90;;;;;;5006829;28;20980;-46
2021/11/02 02:25:54;;;;;;;3.03;1.40;;;10.00;99.90;;;;;;5006359;28;20414;-47
2021/11/02 02:28:22;;;;;;;5.17;2.00;;;10.00;99.90;;;;;;5005681;28;20418;-44
2021/11/02 02:31:08;;;;;;;2.43;1.70;;;10.10;99.90;;;;;;5010233;28;21025;-45
2021/11/02 02:33:38;;;;;;;4.10;1.90;;;10.10;99.90;;;;;;5010843;28;20565;-46
2021/11/02 02:36:04;;;;;;;3.90;2.07;;;10.10;99.90;;;;;;5006714;28;20484;-46
2021/11/02 02:38:33;;;;;;;2.90;1.70;;;10.10;99.90;;;;;;5015760;28;20461;-45
2021/11/02 02:41:00;;;;;;;3.30;1.80;;;10.10;99.90;;;;;;5008020;28;20596;-45
2021/11/02 02:43:26;;;;;;;1.90;1.70;;;10.40;99.90;;;;;;5010099;28;20422;-47
2021/11/02 02:45:53;;;;;;;3.17;1.77;;;10.00;99.90;;;;;;5017673;28;20418;-46
2021/11/02 02:48:20;;;;;;;2.50;1.87;;;10.10;99.90;;;;;;5019846;28;20417;-45
2021/11/02 02:50:51;;;;;;;5.00;2.00;;;10.20;99.90;;;;;;5010254;28;20875;-45
2021/11/02 02:53:18;;;;;;;3.47;1.63;;;10.20;99.90;;;;;;5014989;28;20465;-45
2021/11/02 02:55:46;;;;;;;4.10;1.60;;;10.20;99.90;;;;;;5023306;28;21034;-46
2021/11/02 02:58:12;;;;;;;3.00;1.67;;;10.30;99.90;;;;;;5029681;28;20441;-45
2021/11/02 03:00:40;;;;;;;2.73;1.50;;;10.30;99.90;;;;;;5019122;28;20532;-45
2021/11/02 03:03:07;;;;;;;3.07;1.87;;;10.40;99.90;;;;;;5019344;28;20787;-47
2021/11/02 03:05:33;;;;;;;2.33;1.47;;;10.40;99.90;;;;;;5009676;28;20712;-45
2021/11/02 03:07:59;;;;;;;2.80;1.70;;;10.30;99.90;;;;;;5016932;28;20445;-46
2021/11/02 03:10:25;;;;;;;1.73;1.63;;;10.30;99.90;;;;;;5009802;28;20422;-48
2021/11/02 03:12:53;;;;;;;3.90;1.30;;;10.20;99.90;;;;;;5007798;28;20430;-47
2021/11/02 03:18:53;;;;;;;4.30;2.20;;;10.30;99.90;;;;;;5018569;28;20501;-46
2021/11/02 03:49:25;;;;;;;2.50;1.70;;;10.00;99.90;;;;;;5024531;28;20503;-45
2021/11/02 03:54:47;;;;;;;2.73;1.73;;;10.20;99.90;;;;;;5013366;28;20429;-45
2021/11/02 04:00:11;;;;;;;1.80;1.33;;;10.10;99.90;;;;;;5021332;28;20453;-45
2021/11/02 05:48:01;;;;;;;2.50;1.70;;;8.80;99.90;;;;;;5006700;28;20557;-46
2021/11/02 05:56:18;;;;;;;1.83;1.40;;;8.70;99.90;;;;;;5021689;28;20436;-45
2021/11/02 06:28:49;;;;;;;2.23;1.50;;;8.90;99.90;;;;;;5015703;28;20426;-48
2021/11/02 07:15:31;;;;;;;2.40;1.80;;;8.90;99.90;;;;;;5035854;28;20801;-45
2021/11/02 07:20:54;;;;;;;2.30;2.10;;;8.90;99.90;;;;;;5028439;28;20465;-45
2021/11/02 07:23:31;;;;;;;3.60;2.23;;;8.90;99.90;;;;;;5025209;28;20532;-46
2021/11/02 08:47:53;;;;;;;6.33;2.50;;;11.70;99.90;;;;;;5037682;28;20412;-48
2021/11/02 08:50:20;;;;;;;2.33;1.57;;;11.80;99.90;;;;;;5013951;28;20528;-50
2021/11/02 08:52:53;;;;;;;2.20;1.33;;;11.80;99.90;;;;;;5012950;28;20429;-46
2021/11/02 08:55:20;;;;;;;1.60;0.90;;;11.70;99.90;;;;;;5021402;28;20429;-50
2021/11/02 08:57:48;;;;;;;3.73;1.23;;;11.60;99.90;;;;;;5027327;28;20453;-45
2021/11/02 09:00:15;;;;;;;2.67;1.30;;;11.60;99.90;;;;;;5017240;28;20426;-45
2021/11/02 09:02:46;;;;;;;3.33;1.27;;;11.50;99.90;;;;;;5007342;28;20557;-45
2021/11/02 09:05:18;;;;;;;3.00;1.20;;;11.50;99.90;;;;;;5011771;28;20475;-47
2021/11/02 09:07:49;;;;;;;1.43;1.20;;;11.30;99.90;;;;;;5019493;28;20948;-48
2021/11/02 09:10:18;;;;;;;1.90;1.00;;;11.10;99.90;;;;;;5026428;28;20461;-47
2021/11/02 09:12:46;;;;;;;1.57;1.10;;;11.20;99.90;;;;;;5005615;28;20564;-45
2021/11/02 09:15:13;;;;;;;1.43;1.20;;;11.00;99.90;;;;;;5011404;28;20488;-46
2021/11/02 09:17:45;;;;;;;1.50;1.20;;;11.10;99.90;;;;;;5007079;28;20434;-45
2021/11/02 09:20:11;;;;;;;1.60;0.90;;;10.80;99.90;;;;;;5010634;28;20559;-46
2021/11/02 09:22:37;;;;;;;2.07;1.07;;;10.90;99.90;;;;;;5021355;28;20853;-48
2021/11/02 09:25:03;;;;;;;1.37;1.20;;;10.90;99.90;;;;;;5021634;28;20456;-46
2021/11/02 09:27:29;;;;;;;1.90;1.10;;;10.80;99.90;;;;;;5006935;28;20206;-46
2021/11/02 09:29:56;;;;;;;2.40;1.30;;;10.80;99.90;;;;;;5007455;28;20437;-47
2021/11/02 09:32:24;;;;;;;2.30;1.30;;;10.70;99.90;;;;;;5006903;28;20547;-45
2021/11/02 09:34:50;;;;;;;2.00;0.97;;;10.80;99.90;;;;;;5005794;28;20933;-45
2021/11/02 09:37:19;;;;;;;1.40;1.00;;;10.80;99.90;;;;;;5015278;28;20563;-46
2021/11/02 09:39:50;;;;;;;2.83;0.97;;;10.80;99.90;;;;;;5012801;28;20297;-45
2021/11/02 09:42:41;;;;;;;3.00;1.20;;;10.70;99.90;;;;;;5006739;28;20457;-45
2021/11/02 09:45:43;;;;;;;1.70;1.50;;;10.70;99.90;;;;;;5016391;28;20433;-47
2021/11/02 09:48:37;;;;;;;1.97;1.17;;;10.90;99.90;;;;;;5006579;28;20952;-45
2021/11/02 09:51:24;;;;;;;2.30;1.20;;;11.00;99.90;;;;;;5025565;28;20532;-45
2021/11/02 09:54:15;;;;;;;3.33;1.10;;;10.90;99.90;;;;;;5027002;28;20927;-48
2021/11/02 09:57:13;;;;;;;5.43;1.43;;;11.00;99.90;;;;;;5020799;28;20496;-47
2021/11/02 10:00:10;;;;;;;2.60;1.10;;;11.10;99.90;;;;;;5013116;28;20525;-46
2021/11/02 10:02:38;;;;;;;1.83;1.20;;;11.40;99.90;;;;;;5007624;28;20477;-50
2021/11/02 10:06:04;;;;;;;1.83;1.13;;;11.30;99.90;;;;;;5015994;28;20412;-47
2021/11/02 10:08:49;;;;;;;1.50;1.23;;;11.20;99.90;;;;;;5022904;28;20539;-46
2021/11/02 10:11:36;;;;;;;1.63;1.10;;;11.40;99.90;;;;;;5009047;28;20807;-49
2021/11/02 10:14:28;;;;;;;1.33;1.13;;;11.40;99.90;;;;;;5006844;28;20491;-47
2021/11/02 10:17:15;;;;;;;4.50;0.80;;;11.60;99.90;;;;;;5008025;28;20425;-47
2021/11/02 10:20:06;;;;;;;1.60;1.23;;;11.50;99.90;;;;;;5006676;28;20445;-50
2021/11/02 10:23:14;;;;;;;1.83;1.10;;;11.50;99.90;;;;;;5025670;28;20871;-45
2021/11/02 10:26:09;;;;;;;1.00;0.87;;;11.50;99.90;;;;;;5016439;28;20559;-46
2021/11/02 10:28:51;;;;;;;1.83;0.93;;;11.40;99.90;;;;;;5005935;28;20947;-45
2021/11/02 10:31:27;;;;;;;1.67;1.07;;;11.50;99.90;;;;;;5021116;28;20420;-45
2021/11/02 10:34:22;;;;;;;4.80;1.13;;;11.50;99.90;;;;;;5019719;28;20446;-46
2021/11/02 10:37:03;;;;;;;2.70;1.60;;;11.60;99.90;;;;;;5043046;28;20826;-47
2021/11/02 10:39:52;;;;;;;3.47;1.17;;;11.70;99.90;;;;;;5010021;28;20835;-50
2021/11/02 10:42:26;;;;;;;3.03;1.10;;;11.80;99.90;;;;;;5013117;28;20499;-45
2021/11/02 10:44:57;;;;;;;4.47;1.30;;;11.90;99.90;;;;;;5029609;28;20428;-45
2021/11/02 10:47:26;;;;;;;4.80;1.30;;;11.90;99.90;;;;;;5029941;28;20420;-48
2021/11/02 10:50:08;;;;;;;1.30;0.90;;;11.90;99.90;;;;;;5032758;28;20415;-45
2021/11/02 10:52:36;;;;;;;2.97;1.23;;;12.00;99.90;;;;;;5007506;28;20912;-45
2021/11/02 10:55:23;;;;;;;1.33;1.10;;;11.90;99.90;;;;;;5015100;28;20458;-46
2021/11/02 10:58:19;;;;;;;2.60;1.30;;;11.80;99.90;;;;;;5005112;28;20886;-48
2021/11/02 11:00:48;;;;;;;1.80;1.00;;;12.00;99.90;;;;;;5007340;28;20580;-45
2021/11/02 11:03:16;;;;;;;1.03;0.93;;;12.00;99.90;;;;;;5012727;28;20482;-45
2021/11/02 11:05:55;;;;;;;1.70;0.70;;;12.00;99.90;;;;;;5021742;28;20444;-46
2021/11/02 11:08:26;;;;;;;1.80;1.00;;;11.90;99.90;;;;;;5012784;28;20499;-47
2021/11/02 11:10:55;;;;;;;1.20;0.87;;;12.00;99.90;;;;;;5023301;28;20429;-47
2021/11/02 11:13:25;;;;;;;1.00;0.80;;;12.20;99.90;;;;;;5039852;28;20946;-45
2021/11/02 11:15:57;;;;;;;2.07;1.07;;;12.10;99.90;;;;;;5009487;28;20953;-44
2021/11/02 11:18:33;;;;;;;0.73;0.70;;;12.10;99.90;;;;;;5008874;28;20884;-47
2021/11/02 11:21:00;;;;;;;2.80;1.00;;;12.20;99.90;;;;;;5015672;28;20501;-46
2021/11/02 11:23:26;;;;;;;4.10;0.93;;;12.20;99.90;;;;;;5015043;28;20469;-48
2021/11/02 11:26:00;;;;;;;1.73;0.77;;;12.40;99.90;;;;;;5013321;28;20536;-48
2021/11/02 11:28:32;;;;;;;2.30;0.70;;;12.30;99.90;;;;;;5018466;28;20431;-49
2021/11/02 11:30:58;;;;;;;2.40;0.90;;;12.20;99.90;;;;;;5020259;28;20426;-47
2021/11/02 11:33:28;;;;;;;1.37;0.83;;;12.20;99.90;;;;;;5015593;28;20712;-46
2021/11/02 11:36:01;;;;;;;2.63;1.00;;;12.30;99.90;;;;;;5018895;28;21421;-46
2021/11/02 11:38:42;;;;;;;1.37;0.70;;;12.30;99.90;;;;;;5021948;28;20432;-46
2021/11/02 11:41:10;;;;;;;2.03;1.00;;;12.50;99.90;;;;;;5034486;28;20468;-47
2021/11/02 11:43:38;;;;;;;3.70;0.83;;;12.50;99.90;;;;;;5041986;28;20535;-46
2021/11/02 11:46:05;;;;;;;3.70;0.80;;;12.50;99.90;;;;;;5027553;28;20483;-46
2021/11/02 11:48:32;;;;;;;2.10;0.83;;;12.60;99.90;;;;;;5022116;28;20414;-45
2021/11/02 11:51:02;;;;;;;1.00;0.40;;;12.80;99.90;;;;;;5014592;28;20437;-46
2021/11/02 11:53:30;;;;;;;1.43;0.60;;;12.80;99.90;;;;;;5020989;28;20420;-45
2021/11/02 11:56:06;;;;;;;0.80;0.50;;;12.80;99.90;;;;;;5019530;28;20425;-45
2021/11/02 11:58:32;;;;;;;0.60;0.40;;;12.80;99.90;;;;;;5012145;28;20963;-47
2021/11/02 12:01:26;;;;;;;1.37;0.80;;;12.70;99.90;;;;;;5027676;28;20784;-46
2021/11/02 12:04:20;;;;;;;1.70;0.90;;;12.70;99.90;;;;;;5008258;28;20454;-46
2021/11/02 12:07:17;;;;;;;1.93;0.73;;;12.30;99.90;;;;;;5009318;28;20445;-46
2021/11/02 12:09:45;;;;;;;2.53;1.47;;;12.30;99.90;;;;;;5018858;28;20441;-45
2021/11/02 12:12:12;;;;;;;2.40;0.87;;;12.30;99.90;;;;;;5011693;28;20484;-45
2021/11/02 12:14:51;;;;;;;2.90;1.20;;;12.40;99.90;;;;;;5007301;28;20450;-46
2021/11/02 12:17:20;;;;;;;4.67;1.33;;;12.50;99.90;;;;;;5008036;28;20507;-46
2021/11/02 12:20:04;;;;;;;1.93;0.80;;;12.20;99.90;;;;;;5024225;28;20517;-46
2021/11/02 12:22:54;;;;;;;0.80;0.70;;;12.20;99.90;;;;;;5022382;28;20468;-44
2021/11/02 12:25:40;;;;;;;1.93;1.03;;;12.10;99.90;;;;;;5027445;28;20469;-45
2021/11/02 12:28:06;;;;;;;1.90;1.13;;;12.10;99.90;;;;;;5023451;28;20440;-45
2021/11/02 12:30:33;;;;;;;0.70;0.53;;;12.10;99.90;;;;;;5013394;28;20426;-45
2021/11/02 12:33:09;;;;;;;0.90;0.67;;;12.20;99.90;;;;;;5015630;28;20240;-48
2021/11/02 12:35:45;;;;;;;0.57;0.50;;;11.90;99.90;;;;;;5014544;28;20420;-44
2021/11/02 12:38:12;;;;;;;2.60;0.60;;;12.30;99.90;;;;;;5025420;28;20432;-45
2021/11/02 12:40:42;;;;;;;0.63;0.40;;;12.20;99.90;;;;;;5024948;28;20483;-46
2021/11/02 12:43:24;;;;;;;0.50;0.30;;;12.20;99.90;;;;;;5019683;28;20583;-46
2021/11/02 12:45:52;;;;;;;0.80;0.50;;;12.20;99.90;;;;;;5026310;28;20453;-49
2021/11/02 12:48:20;;;;;;;0.50;0.30;;;12.20;99.90;;;;;;5009922;28;20484;-45
2021/11/02 12:50:49;;;;;;;1.30;0.50;;;12.30;99.90;;;;;;5017535;28;20429;-45
2021/11/02 12:53:15;;;;;;;0.97;0.50;;;12.20;99.90;;;;;;5023010;28;20502;-45
2021/11/02 12:55:41;;;;;;;0.97;0.70;;;12.20;99.90;;;;;;5033758;28;20433;-46
2021/11/02 12:58:12;;;;;;;0.83;0.70;;;12.10;99.90;;;;;;5037808;28;20543;-46
2021/11/02 13:00:50;;;;;;;2.60;0.77;;;12.00;99.90;;;;;;5033194;28;20182;-45
2021/11/02 13:03:29;;;;;;;0.67;0.50;;;12.10;99.90;;;;;;5027781;28;20494;-47
2021/11/02 13:06:07;;;;;;;0.97;0.70;;;12.20;99.90;;;;;;5011311;28;20442;-46
2021/11/02 13:08:36;;;;;;;0.60;0.60;;;12.20;99.90;;;;;;5017670;28;20435;-47
2021/11/02 13:11:15;;;;;;;1.30;0.60;;;12.30;99.90;;;;;;5021568;28;20449;-47
2021/11/02 13:14:04;;;;;;;2.23;0.87;;;12.30;99.90;;;;;;5011062;28;20956;-50
2021/11/02 13:16:51;;;;;;;1.20;0.77;;;12.20;99.90;;;;;;5011792;28;20440;-48
2021/11/02 13:19:17;;;;;;;0.90;0.80;;;12.30;99.90;;;;;;5006836;28;20523;-50
2021/11/02 13:21:45;;;;;;;0.87;0.50;;;12.20;99.90;;;;;;5006711;28;20501;-46
2021/11/02 13:24:12;;;;;;;0.73;0.63;;;12.20;99.90;;;;;;5024098;28;20221;-45
2021/11/02 13:26:46;;;;;;;1.07;0.70;;;12.20;99.90;;;;;;5026843;28;20453;-45
2021/11/02 13:29:14;;;;;;;0.60;0.60;;;12.40;99.90;;;;;;5013500;28;20428;-47
2021/11/02 13:31:42;;;;;;;1.03;0.77;;;12.30;99.90;;;;;;5039676;28;20420;-45
2021/11/02 13:34:16;;;;;;;2.53;0.80;;;12.30;99.90;;;;;;5028988;28;20449;-46
2021/11/02 13:36:42;;;;;;;0.90;0.63;;;12.30;99.90;;;;;;5007891;28;20450;-44
2021/11/02 13:39:11;;;;;;;1.90;0.83;;;12.30;99.90;;;;;;5015284;28;21031;-45
2021/11/02 13:41:40;;;;;;;0.80;0.57;;;12.30;99.90;;;;;;5012252;28;20462;-45
2021/11/02 13:44:08;;;;;;;1.00;0.77;;;12.30;99.90;;;;;;5005899;28;20429;-45
2021/11/02 13:46:36;;;;;;;0.80;0.70;;;12.20;99.90;;;;;;5015731;28;20437;-45
2021/11/02 13:49:07;;;;;;;3.17;0.77;;;12.20;99.90;;;;;;5006944;28;20525;-47
2021/11/02 13:51:33;;;;;;;0.60;0.60;;;12.30;99.90;;;;;;5006480;28;20504;-45
2021/11/02 13:54:00;;;;;;;1.60;0.63;;;12.30;99.90;;;;;;5022608;28;20441;-46
2021/11/02 13:56:31;;;;;;;1.30;0.80;;;12.20;99.90;;;;;;5023860;28;20445;-48
2021/11/02 13:58:58;;;;;;;0.83;0.67;;;12.30;99.90;;;;;;5017410;28;20445;-46
2021/11/02 14:01:40;;;;;;;0.70;0.50;;;12.30;99.90;;;;;;5010144;28;20461;-47
2021/11/02 14:04:27;;;;;;;1.00;0.80;;;12.40;99.90;;;;;;5005946;28;20536;-48
2021/11/02 14:07:15;;;;;;;1.13;0.80;;;12.50;99.90;;;;;;5012734;28;20825;-44
2021/11/02 14:10:04;;;;;;;1.87;0.70;;;12.40;99.90;;;;;;5028502;28;20489;-46
2021/11/02 14:12:55;;;;;;;1.63;0.93;;;12.50;99.90;;;;;;5019418;28;20432;-45
2021/11/02 14:15:23;;;;;;;2.20;0.93;;;12.40;99.90;;;;;;5015948;28;20455;-47
2021/11/02 14:17:52;;;;;;;2.50;1.10;;;12.40;99.90;;;;;;5044489;28;20449;-45
2021/11/02 14:20:33;;;;;;;1.37;0.93;;;12.30;99.90;;;;;;5016055;28;20422;-45
2021/11/02 14:23:00;;;;;;;2.00;1.00;;;12.40;99.90;;;;;;5012979;28;20480;-44
2021/11/02 14:25:34;;;;;;;1.10;1.00;;;12.30;99.90;;;;;;5016016;28;20430;-45
2021/11/02 14:28:00;;;;;;;1.17;1.07;;;12.30;99.90;;;;;;5019457;28;20433;-45
2021/11/02 14:30:41;;;;;;;1.20;1.00;;;12.20;99.90;;;;;;5036585;28;20430;-45
2021/11/02 14:33:17;;;;;;;1.53;1.10;;;12.20;99.90;;;;;;5005355;28;20768;-45
2021/11/02 14:35:53;;;;;;;1.10;0.90;;;12.20;99.90;;;;;;5014643;28;20690;-45
2021/11/02 14:38:23;;;;;;;0.80;0.80;;;12.10;99.90;;;;;;5044090;28;20505;-46
2021/11/02 14:40:57;;;;;;;1.10;0.90;;;12.10;99.90;;;;;;5031416;28;20907;-46
2021/11/02 14:43:29;;;;;;;1.50;1.03;;;12.10;99.90;;;;;;5031860;28;20845;-47
2021/11/02 14:46:04;;;;;;;1.87;1.10;;;12.10;99.90;;;;;;5037159;28;20829;-48
2021/11/02 14:48:37;;;;;;;1.17;0.90;;;12.10;99.90;;;;;;5005673;28;20464;-45
2021/11/02 14:51:05;;;;;;;1.50;1.00;;;12.00;99.90;;;;;;5005239;28;20437;-46
2021/11/02 14:53:38;;;;;;;1.50;0.90;;;12.00;99.90;;;;;;5016782;28;20445;-46
2021/11/02 14:56:17;;;;;;;0.87;0.87;;;12.00;99.90;;;;;;5022173;28;20799;-45
2021/11/02 14:58:51;;;;;;;1.00;0.90;;;12.00;99.90;;;;;;5016888;28;20475;-45
2021/11/02 15:01:32;;;;;;;2.17;1.00;;;11.90;99.90;;;;;;5019745;28;21059;-45
2021/11/02 15:04:01;;;;;;;1.30;1.20;;;11.90;99.90;;;;;;5009177;28;20417;-45
2021/11/02 15:06:37;;;;;;;1.37;1.20;;;11.90;99.90;;;;;;5011003;28;20435;-45
2021/11/02 15:09:12;;;;;;;5.70;1.33;;;11.90;99.90;;;;;;5013166;28;20432;-45
2021/11/02 15:11:43;;;;;;;1.33;0.90;;;11.90;99.90;;;;;;5023005;28;20718;-45
2021/11/02 15:14:20;;;;;;;1.20;1.00;;;11.90;99.90;;;;;;5014734;28;20473;-46
2021/11/02 15:16:52;;;;;;;1.67;0.97;;;11.80;99.90;;;;;;5011642;28;20951;-44
2021/11/02 15:19:21;;;;;;;1.20;0.80;;;11.80;99.90;;;;;;5005423;28;20422;-45
2021/11/02 15:21:53;;;;;;;1.07;0.93;;;11.80;99.90;;;;;;5014457;28;20458;-46
2021/11/02 15:24:34;;;;;;;1.13;1.00;;;11.80;99.90;;;;;;5040521;28;20902;-44
2021/11/02 15:27:16;;;;;;;2.13;0.97;;;11.70;99.90;;;;;;5009678;28;20539;-46
2021/11/02 15:29:47;;;;;;;1.37;0.90;;;11.60;99.90;;;;;;5012129;28;20418;-45
2021/11/02 15:32:21;;;;;;;1.20;1.10;;;11.60;99.90;;;;;;5006056;28;20426;-47
2021/11/02 15:34:51;;;;;;;2.10;1.30;;;11.50;99.90;;;;;;5041966;28;20420;-47
2021/11/02 15:37:35;;;;;;;2.77;1.10;;;11.40;99.90;;;;;;5016364;28;20421;-45
2021/11/02 15:40:05;;;;;;;2.87;1.10;;;11.40;99.90;;;;;;5021813;28;20467;-45
2021/11/02 15:42:36;;;;;;;0.70;0.70;;;11.30;99.90;;;;;;5034500;28;20518;-45
2021/11/02 15:45:34;;;;;;;1.43;0.90;;;11.30;99.90;;;;;;5033185;28;20435;-45
2021/11/02 15:48:17;;;;;;;1.00;0.70;;;11.30;99.90;;;;;;5023489;28;20433;-44
2021/11/02 15:50:48;;;;;;;1.00;0.90;;;11.20;99.90;;;;;;5028244;28;20424;-47
2021/11/02 15:53:21;;;;;;;1.27;0.80;;;11.20;99.90;;;;;;5020681;28;20445;-44
2021/11/02 15:55:46;;;;;;;0.90;0.90;;;11.50;99.90;;;;;;5014745;28;20421;-45
2021/11/02 15:58:12;;;;;;;1.33;0.90;;;11.10;99.90;;;;;;5011396;28;20462;-46
2021/11/02 16:00:41;;;;;;;1.17;0.87;;;11.00;99.90;;;;;;5008698;28;20261;-45
2021/11/02 16:03:14;;;;;;;1.40;0.60;;;11.00;99.90;;;;;;5008260;28;20477;-45
2021/11/02 16:05:42;;;;;;;1.33;0.63;;;11.00;99.90;;;;;;5013667;28;20432;-46
2021/11/02 16:08:24;;;;;;;0.90;0.70;;;11.10;99.90;;;;;;5022277;28;20440;-45
2021/11/02 16:11:04;;;;;;;1.00;0.80;;;10.90;99.90;;;;;;5012389;28;20458;-47
2021/11/02 16:13:30;;;;;;;1.37;0.87;;;10.90;99.90;;;;;;5011174;28;20425;-45
2021/11/02 16:15:58;;;;;;;1.30;1.20;;;10.90;99.90;;;;;;5017259;28;20524;-45
2021/11/02 16:18:28;;;;;;;3.87;3.57;;;10.90;99.90;;;;;;5021668;28;20432;-47
2021/11/02 16:20:57;;;;;;;2.43;2.30;;;10.80;99.90;;;;;;5008530;28;20430;-45
2021/11/02 16:23:24;;;;;;;1.43;0.93;;;10.80;99.90;;;;;;5012162;28;20437;-47
2021/11/02 16:25:55;;;;;;;2.00;1.87;;;10.70;99.90;;;;;;5023149;28;20425;-45
2021/11/02 16:28:29;;;;;;;1.60;1.03;;;10.70;99.90;;;;;;5019141;28;20527;-45
2021/11/02 16:30:57;;;;;;;1.47;1.20;;;10.70;99.90;;;;;;5008089;28;20484;-46
2021/11/02 16:33:37;;;;;;;1.47;0.90;;;10.70;99.90;;;;;;5010667;28;20421;-47
2021/11/02 16:36:20;;;;;;;1.23;1.13;;;10.70;99.90;;;;;;5029402;28;20425;-45
2021/11/02 16:38:47;;;;;;;3.40;1.10;;;10.90;99.90;;;;;;5024452;28;20425;-48
2021/11/02 16:41:21;;;;;;;1.63;0.80;;;10.80;99.90;;;;;;5025647;28;20776;-45
2021/11/02 16:43:50;;;;;;;1.00;0.90;;;10.80;99.90;;;;;;5014566;28;20436;-46
2021/11/02 16:46:27;;;;;;;1.83;1.73;;;10.70;99.90;;;;;;5012611;28;20527;-44
2021/11/02 16:49:09;;;;;;;3.57;1.20;;;10.70;99.90;;;;;;5029027;28;20413;-45
2021/11/02 16:51:49;;;;;;;1.77;1.00;;;10.60;99.90;;;;;;5009046;28;20814;-45
2021/11/02 16:54:20;;;;;;;1.20;1.10;;;10.80;99.90;;;;;;5007611;28;20434;-45
2021/11/02 16:57:33;;;;;;;2.97;1.53;;;10.70;99.90;;;;;;5020292;28;20421;-45
2021/11/02 17:00:15;;;;;;;1.67;1.57;;;10.70;99.90;;;;;;5004856;28;20450;-49
2021/11/02 17:02:45;;;;;;;1.27;1.10;;;10.60;99.90;;;;;;5013497;28;20481;-46
2021/11/02 17:05:25;;;;;;;1.10;1.00;;;10.60;99.90;;;;;;5007667;28;20520;-45
2021/11/02 17:08:02;;;;;;;2.30;1.53;;;10.60;99.90;;;;;;5016592;28;20426;-51
2021/11/02 17:10:37;;;;;;;1.87;1.60;;;10.70;99.90;;;;;;5016812;28;20426;-45
2021/11/02 17:13:24;;;;;;;1.50;1.40;;;10.70;99.90;;;;;;5017027;28;20436;-45
2021/11/02 17:16:05;;;;;;;1.40;1.30;;;10.50;99.90;;;;;;5007170;28;20434;-45
2021/11/02 17:18:53;;;;;;;2.40;1.83;;;10.50;99.90;;;;;;5021173;28;20827;-45
2021/11/02 17:21:25;;;;;;;1.77;1.60;;;10.60;99.90;;;;;;5022290;28;20464;-44
2021/11/02 17:23:52;;;;;;;4.93;2.07;;;10.40;99.90;;;;;;5021468;28;20516;-48
2021/11/02 17:26:21;;;;;;;1.50;1.40;;;10.60;99.90;;;;;;5019345;28;20436;-45
2021/11/02 17:28:48;;;;;;;3.53;3.13;;;10.40;99.90;;;;;;5012065;28;20414;-45
2021/11/02 17:31:20;;;;;;;4.73;3.97;;;10.50;99.90;;;;;;5016577;28;20503;-45
2021/11/02 17:33:47;;;;;;;2.20;1.70;;;10.40;99.90;;;;;;5006308;28;21309;-48
2021/11/02 17:36:17;;;;;;;4.60;2.20;;;10.50;99.90;;;;;;5026140;28;20417;-51
2021/11/02 17:38:47;;;;;;;3.60;3.30;;;10.40;99.90;;;;;;5010925;28;20424;-51
2021/11/02 17:41:16;;;;;;;2.53;2.33;;;10.40;99.90;;;;;;5025172;28;20432;-49
2021/11/02 17:43:46;;;;;;;2.50;2.27;;;10.60;99.90;;;;;;5008012;28;20793;-50
2021/11/02 17:46:13;;;;;;;2.00;1.80;;;10.40;99.90;;;;;;5036133;28;20907;-50
2021/11/02 17:48:39;;;;;;;1.80;1.70;;;10.30;99.90;;;;;;5012975;28;20437;-45
2021/11/02 17:51:06;;;;;;;2.63;2.43;;;10.50;99.90;;;;;;5005985;28;20866;-45
2021/11/02 17:53:32;;;;;;;9.07;8.17;;;10.30;99.90;;;;;;5003914;28;20513;-46
2021/11/02 17:55:59;;;;;;;6.20;2.77;;;10.20;99.90;;;;;;5016448;28;20418;-45
2021/11/02 17:58:27;;;;;;;2.70;2.50;;;10.10;99.90;;;;;;5020365;28;20812;-45
2021/11/02 18:00:56;;;;;;;2.17;1.83;;;10.10;99.90;;;;;;5010683;28;20496;-45
2021/11/02 18:03:22;;;;;;;4.03;3.60;;;10.20;99.90;;;;;;5004083;28;20446;-45
2021/11/02 18:05:54;;;;;;;3.10;2.80;;;9.90;99.90;;;;;;5019742;28;20795;-45
2021/11/02 18:08:20;;;;;;;3.83;3.43;;;10.00;99.90;;;;;;5006822;28;20418;-48
2021/11/02 18:10:46;;;;;;;3.67;3.37;;;10.00;99.90;;;;;;5010143;28;20748;-45
2021/11/02 18:13:13;;;;;;;5.47;4.70;;;9.80;99.90;;;;;;5010322;28;20632;-49
2021/11/02 18:15:39;;;;;;;14.77;11.20;;;9.80;99.90;;;;;;5004185;28;20492;-46
2021/11/02 18:18:08;;;;;;;10.03;8.07;;;9.70;99.90;;;;;;5015208;28;20769;-45
2021/11/02 18:20:34;;;;;;;5.23;4.73;;;9.90;99.90;;;;;;5009989;28;20370;-47
2021/11/02 18:23:03;;;;;;;4.03;3.63;;;9.60;99.90;;;;;;5014714;28;20484;-45
2021/11/02 18:25:30;;;;;;;6.37;4.47;;;9.70;99.90;;;;;;5006019;28;20448;-46
2021/11/02 18:27:56;;;;;;;7.73;4.13;;;9.60;99.90;;;;;;5013433;28;20460;-48
2021/11/02 18:30:24;;;;;;;4.37;3.73;;;9.60;99.90;;;;;;5032744;28;20413;-45